Time;durP1;ratioP1;P1;durP2;ratioP2;P2;SDS_P1;SDS_P2;PMS_P1;PMS_P2;Temp;Humidity;BMP_temperature;BMP_pressure;BME280_temperature;BME280_humidity;BME280_pressure;Samples;Min_cycle;Max_cycle;Signal;HPM_P1;HPM_P2
2022/12/28 00:01:25;;;;;;;;;;;5.30;99.90;;;;;;5067748;28;20605;-69
2022/12/28 00:03:51;;;;;;;;;;;5.40;99.90;;;;;;5053362;28;19912;-69
2022/12/28 00:06:17;;;;;;;;;;;5.40;99.90;;;;;;5087988;28;20361;-69
2022/12/28 00:08:43;;;;;;;;;;;5.40;99.90;;;;;;5088081;28;19916;-69
2022/12/28 00:11:15;;;;;;;;;;;5.40;99.90;;;;;;5087884;28;20475;-69
2022/12/28 00:13:41;;;;;;;;;;;5.40;99.90;;;;;;5088185;28;19916;-69
2022/12/28 00:16:14;;;;;;;;;;;5.40;99.90;;;;;;5088218;28;19965;-69
2022/12/28 00:18:40;;;;;;;;;;;5.40;99.90;;;;;;5087319;28;20452;-69
2022/12/28 00:21:05;;;;;;;;;;;5.40;99.90;;;;;;5086426;28;20016;-69
2022/12/28 00:23:31;;;;;;;;;;;5.40;99.90;;;;;;5087164;28;19915;-69
2022/12/28 00:26:04;;;;;;;;;;;5.40;99.90;;;;;;5087906;28;20035;-69
2022/12/28 00:28:30;;;;;;;;;;;5.40;99.90;;;;;;5087285;28;19956;-69
2022/12/28 00:30:56;;;;;;;;;;;5.40;99.90;;;;;;5087553;28;19954;-69
2022/12/28 00:33:21;;;;;;;;;;;5.40;99.90;;;;;;5087197;28;19912;-69
2022/12/28 00:35:53;;;;;;;;;;;5.40;99.90;;;;;;5087204;28;19970;-69
2022/12/28 00:38:19;;;;;;;;;;;5.40;99.90;;;;;;5087180;28;19915;-69
2022/12/28 00:40:44;;;;;;;;;;;5.40;99.90;;;;;;5087621;28;19912;-69
2022/12/28 00:43:10;;;;;;;;;;;5.40;99.90;;;;;;5087160;28;19919;-69
2022/12/28 00:45:35;;;;;;;;;;;5.40;99.90;;;;;;5087331;28;19912;-69
2022/12/28 00:48:01;;;;;;;;;;;5.40;99.90;;;;;;5087101;28;19926;-69
2022/12/28 00:50:26;;;;;;;;;;;5.40;99.90;;;;;;5087087;28;20293;-69
2022/12/28 00:52:52;;;;;;;;;;;5.40;99.90;;;;;;5087279;28;19916;-69
2022/12/28 00:55:17;;;;;;;;;;;5.40;99.90;;;;;;5086683;28;20318;-69
2022/12/28 00:57:43;;;;;;;;;;;5.40;99.90;;;;;;5074988;28;19912;-69
2022/12/28 01:00:09;;;;;;;;;;;5.40;99.90;;;;;;5066793;28;19913;-69
2022/12/28 01:02:34;;;;;;;;;;;5.40;99.90;;;;;;5066757;28;19919;-68
2022/12/28 01:04:59;;;;;;;;;;;5.40;99.90;;;;;;5080823;28;19965;-68
2022/12/28 01:07:25;;;;;;;;;;;5.40;99.90;;;;;;5087119;28;19922;-69
2022/12/28 01:09:50;;;;;;;;;;;5.40;99.90;;;;;;5086865;28;19912;-69
2022/12/28 01:12:16;;;;;;;;;;;5.40;99.90;;;;;;5087059;28;19919;-69
2022/12/28 01:14:41;;;;;;;;;;;5.40;99.90;;;;;;5068964;28;19916;-69
2022/12/28 01:17:07;;;;;;;;;;;5.40;99.90;;;;;;5086075;28;19916;-69
2022/12/28 01:19:32;;;;;;;;;;;5.50;99.90;;;;;;5086595;28;20014;-69
2022/12/28 01:21:58;;;;;;;;;;;5.50;99.90;;;;;;5086144;28;19908;-69
2022/12/28 01:24:23;;;;;;;;;;;5.50;99.90;;;;;;5084764;28;19969;-69
2022/12/28 01:26:49;;;;;;;;;;;5.50;99.90;;;;;;5068880;28;19922;-69
2022/12/28 01:29:14;;;;;;;;;;;5.50;99.90;;;;;;5087255;28;19912;-69
2022/12/28 01:31:40;;;;;;;;;;;5.40;99.90;;;;;;5086755;28;19959;-69
2022/12/28 01:34:05;;;;;;;;;;;5.40;99.90;;;;;;5086239;28;19912;-69
2022/12/28 01:36:33;;;;;;;;;;;5.50;99.90;;;;;;5086855;28;19915;-69
2022/12/28 01:39:01;;;;;;;;;;;5.50;99.90;;;;;;5086836;28;19909;-69
2022/12/28 01:41:27;;;;;;;;;;;5.50;99.90;;;;;;5068414;28;19916;-69
2022/12/28 01:43:53;;;;;;;;;;;5.50;99.90;;;;;;5086903;28;20312;-69
2022/12/28 01:46:23;;;;;;;;;;;5.50;99.90;;;;;;5087011;28;19912;-69
2022/12/28 01:49:05;;;;;;;;;;;5.50;99.90;;;;;;5086673;28;19912;-69
2022/12/28 01:51:34;;;;;;;;;;;5.50;99.90;;;;;;5090443;28;20302;-69
2022/12/28 01:54:00;;;;;;;;;;;5.50;99.90;;;;;;5072782;28;19917;-69
2022/12/28 01:56:26;;;;;;;;;;;5.50;99.90;;;;;;5070290;28;19931;-69
2022/12/28 01:58:52;;;;;;;;;;;5.50;99.90;;;;;;5070032;28;19912;-69
2022/12/28 02:01:17;;;;;;;;;;;5.50;99.90;;;;;;5069813;28;20606;-69
2022/12/28 02:03:43;;;;;;;;;;;5.50;99.90;;;;;;5073025;28;19912;-69
2022/12/28 02:06:10;;;;;;;;;;;5.50;99.90;;;;;;5090291;28;20277;-69
2022/12/28 02:08:45;;;;;;;;;;;5.50;99.90;;;;;;5090314;28;19912;-69
2022/12/28 02:11:12;;;;;;;;;;;5.50;99.90;;;;;;5089100;28;20015;-69
2022/12/28 02:13:38;;;;;;;;;;;5.50;99.90;;;;;;5089907;28;20558;-68
2022/12/28 02:16:04;;;;;;;;;;;5.50;99.90;;;;;;5090058;28;20003;-69
2022/12/28 02:18:30;;;;;;;;;;;5.50;99.90;;;;;;5071513;28;19908;-69
2022/12/28 02:21:10;;;;;;;;;;;5.50;99.90;;;;;;5088365;28;20379;-69
2022/12/28 02:23:48;;;;;;;;;;;5.50;99.90;;;;;;5089548;28;20000;-69
2022/12/28 02:26:16;;;;;;;;;;;5.60;99.90;;;;;;5082941;28;19912;-68
2022/12/28 02:28:50;;;;;;;;;;;5.60;99.90;;;;;;5081281;28;19923;-69
2022/12/28 02:31:19;;;;;;;;;;;5.60;99.90;;;;;;5089964;28;20397;-69
2022/12/28 02:33:49;;;;;;;;;;;5.60;99.90;;;;;;5089681;28;20426;-69
2022/12/28 02:36:21;;;;;;;;;;;5.60;99.90;;;;;;5089778;28;19916;-69
2022/12/28 02:38:50;;;;;;;;;;;5.60;99.90;;;;;;5089706;28;19919;-69
2022/12/28 02:41:18;;;;;;;;;;;5.60;99.90;;;;;;5071217;28;19916;-69
2022/12/28 02:43:44;;;;;;;;;;;5.60;99.90;;;;;;5089672;28;19908;-69
2022/12/28 02:52:18;;;;;;;;;;;5.60;99.90;;;;;;5080601;28;19944;-69
2022/12/28 02:57:48;;;;;;;;;;;5.70;99.90;;;;;;5068819;28;19961;-69
2022/12/28 03:00:15;;;;;;;;;;;5.60;99.90;;;;;;5046884;28;19908;-69
2022/12/28 03:02:53;;;;;;;;;;;5.70;99.90;;;;;;5068759;28;20339;-69
2022/12/28 03:08:13;;;;;;;;;;;5.60;99.90;;;;;;5084724;28;19950;-69
2022/12/28 03:08:21;;;;;;;;;;;5.70;99.90;;;;;;5088660;28;19908;-68
2022/12/28 03:10:58;;;;;;;;;;;5.70;99.90;;;;;;5088967;28;19912;-69
2022/12/28 03:13:44;;;;;;;;;;;5.70;99.90;;;;;;5088627;28;20003;-69
2022/12/28 03:16:21;;;;;;;;;;;5.70;99.90;;;;;;5089022;28;20662;-69
2022/12/28 03:32:36;;;;;;;;;;;5.70;99.90;;;;;;5088395;28;19915;-69
2022/12/28 03:35:02;;;;;;;;;;;5.70;99.90;;;;;;5088675;28;19920;-68
2022/12/28 03:37:32;;;;;;;;;;;5.70;99.90;;;;;;5088423;28;19912;-69
2022/12/28 03:40:04;;;;;;;;;;;5.70;99.90;;;;;;5087772;28;19919;-69
2022/12/28 03:45:28;;;;;;;;;;;5.70;99.90;;;;;;5068047;28;20467;-69
2022/12/28 03:47:55;;;;;;;;;;;5.80;99.90;;;;;;5067674;28;19970;-69
2022/12/28 03:50:21;;;;;;;;;;;5.80;99.90;;;;;;5075938;28;19912;-69
2022/12/28 03:52:46;;;;;;;;;;;5.80;99.90;;;;;;5087813;28;19908;-69
2022/12/28 03:55:13;;;;;;;;;;;5.80;99.90;;;;;;5088019;28;20455;-68
2022/12/28 03:57:39;;;;;;;;;;;5.80;99.90;;;;;;5075089;28;19919;-69
2022/12/28 04:00:05;;;;;;;;;;;5.80;99.90;;;;;;5067495;28;19908;-69
2022/12/28 04:02:31;;;;;;;;;;;5.80;99.90;;;;;;5082973;28;20536;-69
2022/12/28 04:04:56;;;;;;;;;;;5.80;99.90;;;;;;5080990;28;19912;-69
2022/12/28 04:07:22;;;;;;;;;;;5.80;99.90;;;;;;5087487;28;19973;-69
2022/12/28 04:09:47;;;;;;;;;;;5.80;99.90;;;;;;5087740;28;19908;-69
2022/12/28 04:12:13;;;;;;;;;;;5.80;99.90;;;;;;5068978;28;19919;-69
2022/12/28 04:14:39;;;;;;;;;;;5.80;99.90;;;;;;5087370;28;20791;-68
2022/12/28 04:17:04;;;;;;;;;;;5.80;99.90;;;;;;5087213;28;19919;-69
2022/12/28 04:19:30;;;;;;;;;;;5.80;99.90;;;;;;5087344;28;19998;-69
2022/12/28 04:21:55;;;;;;;;;;;5.80;99.90;;;;;;5086687;28;20529;-68
2022/12/28 04:24:21;;;;;;;;;;;5.80;99.90;;;;;;5087212;28;20002;-69
2022/12/28 04:26:46;;;;;;;;;;;5.80;99.90;;;;;;5069266;28;19985;-69
2022/12/28 04:29:12;;;;;;;;;;;5.80;99.90;;;;;;5087515;28;19924;-69
2022/12/28 04:31:37;;;;;;;;;;;5.90;99.90;;;;;;5069148;28;19912;-69
2022/12/28 04:34:03;;;;;;;;;;;5.90;99.90;;;;;;5086841;28;19908;-69
2022/12/28 04:36:28;;;;;;;;;;;5.90;99.90;;;;;;5087303;28;19923;-69
2022/12/28 04:38:54;;;;;;;;;;;5.90;99.90;;;;;;5087408;28;19965;-69
2022/12/28 04:41:19;;;;;;;;;;;5.90;99.90;;;;;;5087248;28;19912;-69
2022/12/28 04:43:44;;;;;;;;;;;5.90;99.90;;;;;;5087388;28;19916;-69
2022/12/28 04:46:11;;;;;;;;;;;5.90;99.90;;;;;;5087489;28;19919;-68
2022/12/28 04:48:37;;;;;;;;;;;5.90;99.90;;;;;;5087089;28;19919;-68
2022/12/28 04:51:09;;;;;;;;;;;5.90;99.90;;;;;;5086832;28;19912;-68
2022/12/28 04:53:38;;;;;;;;;;;5.90;99.90;;;;;;5073546;28;19916;-68
2022/12/28 04:56:04;;;;;;;;;;;5.90;99.90;;;;;;5066899;28;19916;-68
2022/12/28 04:58:30;;;;;;;;;;;6.00;99.90;;;;;;5066733;28;19952;-69
2022/12/28 05:01:07;;;;;;;;;;;5.90;99.90;;;;;;5066655;28;20396;-68
2022/12/28 05:03:32;;;;;;;;;;;5.90;99.90;;;;;;5068408;28;19924;-69
2022/12/28 05:05:59;;;;;;;;;;;6.00;99.90;;;;;;5086362;28;19913;-68
2022/12/28 05:08:24;;;;;;;;;;;6.00;99.90;;;;;;5086778;28;20023;-68
2022/12/28 05:10:50;;;;;;;;;;;6.00;99.90;;;;;;5086716;28;19998;-68
2022/12/28 05:13:15;;;;;;;;;;;6.00;99.90;;;;;;5068311;28;19920;-68
2022/12/28 05:15:41;;;;;;;;;;;6.00;99.90;;;;;;5086807;28;19916;-68
2022/12/28 05:18:06;;;;;;;;;;;6.00;99.90;;;;;;5086749;28;19918;-68
2022/12/28 05:20:32;;;;;;;;;;;6.00;99.90;;;;;;5086266;28;19962;-68
2022/12/28 05:22:57;;;;;;;;;;;6.00;99.90;;;;;;5085600;28;19939;-68
2022/12/28 05:25:23;;;;;;;;;;;6.00;99.90;;;;;;5091253;28;19916;-68
2022/12/28 05:27:48;;;;;;;;;;;6.00;99.90;;;;;;5090396;28;20457;-68
2022/12/28 05:30:14;;;;;;;;;;;6.00;99.90;;;;;;5090651;28;19912;-68
2022/12/28 05:32:39;;;;;;;;;;;6.00;99.90;;;;;;5090806;28;20659;-68
2022/12/28 05:35:05;;;;;;;;;;;6.00;99.90;;;;;;5090723;28;19924;-69
2022/12/28 05:37:30;;;;;;;;;;;6.00;99.90;;;;;;5090752;28;19919;-69
2022/12/28 05:39:56;;;;;;;;;;;6.00;99.90;;;;;;5090051;28;19991;-68
2022/12/28 05:42:21;;;;;;;;;;;6.10;99.90;;;;;;5090432;28;19969;-68
2022/12/28 05:44:47;;;;;;;;;;;6.10;99.90;;;;;;5072248;28;19919;-69
2022/12/28 05:47:12;;;;;;;;;;;6.10;99.90;;;;;;5072108;28;19924;-68
2022/12/28 05:49:38;;;;;;;;;;;6.10;99.90;;;;;;5090440;28;19978;-69
2022/12/28 05:52:03;;;;;;;;;;;6.10;99.90;;;;;;5070625;28;19915;-69
2022/12/28 05:54:29;;;;;;;;;;;6.10;99.90;;;;;;5070155;28;19919;-68
2022/12/28 05:56:54;;;;;;;;;;;6.10;99.90;;;;;;5069281;28;20793;-68
2022/12/28 05:59:20;;;;;;;;;;;6.10;99.90;;;;;;5069724;28;19919;-69
2022/12/28 06:01:46;;;;;;;;;;;6.10;99.90;;;;;;5069739;28;19908;-68
2022/12/28 06:04:18;;;;;;;;;;;6.10;99.90;;;;;;5058808;28;19919;-68
2022/12/28 06:06:45;;;;;;;;;;;6.10;99.90;;;;;;5090192;28;20610;-68
2022/12/28 06:09:10;;;;;;;;;;;6.10;99.90;;;;;;5089939;28;19935;-68
2022/12/28 06:11:36;;;;;;;;;;;6.10;99.90;;;;;;5071522;28;19908;-68
2022/12/28 06:14:04;;;;;;;;;;;6.10;99.90;;;;;;5089423;28;19970;-69
2022/12/28 06:16:32;;;;;;;;;;;6.10;99.90;;;;;;5089807;28;20332;-68
2022/12/28 06:18:58;;;;;;;;;;;6.10;99.90;;;;;;5089914;28;20322;-68
2022/12/28 06:21:24;;;;;;;;;;;6.10;99.90;;;;;;5089145;28;19912;-68
2022/12/28 06:23:50;;;;;;;;;;;6.10;99.90;;;;;;5089252;28;19916;-68
2022/12/28 06:26:16;;;;;;;;;;;6.20;99.90;;;;;;5089722;28;19912;-68
2022/12/28 06:28:42;;;;;;;;;;;6.10;99.90;;;;;;5069487;28;19912;-69
2022/12/28 06:31:10;;;;;;;;;;;6.10;99.90;;;;;;5068863;28;19908;-69
2022/12/28 06:33:35;;;;;;;;;;;6.20;99.90;;;;;;5071007;28;20377;-69
2022/12/28 06:36:01;;;;;;;;;;;6.20;99.90;;;;;;5089138;28;19912;-68
2022/12/28 06:38:29;;;;;;;;;;;6.20;99.90;;;;;;5089688;28;19914;-69
2022/12/28 06:41:00;;;;;;;;;;;6.20;99.90;;;;;;5089285;28;19962;-69
2022/12/28 06:43:25;;;;;;;;;;;6.20;99.90;;;;;;5089658;28;19912;-68
2022/12/28 06:45:56;;;;;;;;;;;6.20;99.90;;;;;;5089514;28;20238;-68
2022/12/28 06:48:22;;;;;;;;;;;6.20;99.90;;;;;;5089267;28;20731;-68
2022/12/28 06:51:01;;;;;;;;;;;6.20;99.90;;;;;;5088881;28;19954;-68
2022/12/28 06:53:27;;;;;;;;;;;6.20;99.90;;;;;;5076875;28;19908;-68
2022/12/28 06:55:53;;;;;;;;;;;6.20;99.90;;;;;;5069311;28;19916;-68
2022/12/28 06:58:19;;;;;;;;;;;6.20;99.90;;;;;;5069042;28;19913;-68
2022/12/28 07:00:44;;;;;;;;;;;6.20;99.90;;;;;;5069109;28;20596;-69
2022/12/28 07:03:10;;;;;;;;;;;6.20;99.90;;;;;;5068840;28;19924;-69
2022/12/28 07:05:35;;;;;;;;;;;6.20;99.90;;;;;;5087128;28;20353;-69
2022/12/28 07:08:01;;;;;;;;;;;6.20;99.90;;;;;;5088622;28;20007;-68
2022/12/28 07:10:26;;;;;;;;;;;6.20;99.90;;;;;;5089178;28;19915;-68
2022/12/28 07:12:51;;;;;;;;;;;6.20;99.90;;;;;;5070780;28;19959;-69
2022/12/28 07:15:17;;;;;;;;;;;6.30;99.90;;;;;;5089105;28;19916;-68
2022/12/28 07:17:42;;;;;;;;;;;6.30;99.90;;;;;;5088520;28;20232;-68
2022/12/28 07:20:08;;;;;;;;;;;6.30;99.90;;;;;;5088059;28;19912;-68
2022/12/28 07:22:34;;;;;;;;;;;6.30;99.90;;;;;;5087157;28;20326;-68
2022/12/28 07:24:59;;;;;;;;;;;6.30;99.90;;;;;;5088659;28;19934;-68
2022/12/28 07:27:25;;;;;;;;;;;6.20;99.90;;;;;;5087669;28;19912;-69
2022/12/28 07:29:50;;;;;;;;;;;6.30;99.90;;;;;;5088420;28;19938;-68
2022/12/28 07:32:16;;;;;;;;;;;6.30;99.90;;;;;;5088435;28;19939;-68
2022/12/28 07:34:41;;;;;;;;;;;6.30;99.90;;;;;;5070006;28;19930;-68
2022/12/28 07:37:06;;;;;;;;;;;6.30;99.90;;;;;;5086776;28;19916;-70
2022/12/28 07:39:32;;;;;;;;;;;6.30;99.90;;;;;;5087826;28;20286;-68
2022/12/28 07:41:57;;;;;;;;;;;6.30;99.90;;;;;;5069785;28;20003;-68
2022/12/28 07:44:23;;;;;;;;;;;6.30;99.90;;;;;;5087970;28;20327;-68
2022/12/28 07:46:48;;;;;;;;;;;6.30;99.90;;;;;;5086289;28;19930;-68
2022/12/28 07:49:14;;;;;;;;;;;6.30;99.90;;;;;;5087816;28;19914;-68
2022/12/28 07:51:39;;;;;;;;;;;6.30;99.90;;;;;;5087228;28;20031;-68
2022/12/28 07:54:05;;;;;;;;;;;6.30;99.90;;;;;;5081172;28;19969;-68
2022/12/28 07:56:31;;;;;;;;;;;6.30;99.90;;;;;;5087725;28;19920;-69
2022/12/28 07:58:58;;;;;;;;;;;6.30;99.90;;;;;;5088124;28;19912;-68
2022/12/28 08:01:25;;;;;;;;;;;6.40;99.90;;;;;;5087746;28;19908;-68
2022/12/28 08:03:56;;;;;;;;;;;6.30;99.90;;;;;;5087772;28;19916;-68
2022/12/28 08:06:22;;;;;;;;;;;6.40;99.90;;;;;;5087849;28;19915;-68
2022/12/28 08:08:48;;;;;;;;;;;6.40;99.90;;;;;;5087020;28;19939;-68
2022/12/28 08:11:15;;;;;;;;;;;6.40;99.90;;;;;;5086889;28;19944;-69
2022/12/28 08:13:42;;;;;;;;;;;6.40;99.90;;;;;;5087375;28;19920;-68
2022/12/28 08:16:09;;;;;;;;;;;6.40;99.90;;;;;;5086731;28;20018;-69
2022/12/28 08:18:34;;;;;;;;;;;6.40;99.90;;;;;;5087013;28;20686;-68
2022/12/28 08:21:01;;;;;;;;;;;6.40;99.90;;;;;;5067623;28;19999;-69
2022/12/28 08:23:27;;;;;;;;;;;6.40;99.90;;;;;;5086984;28;20013;-68
2022/12/28 08:25:52;;;;;;;;;;;6.50;99.90;;;;;;5087668;28;20004;-68
2022/12/28 08:28:18;;;;;;;;;;;6.50;99.90;;;;;;5070551;28;19922;-68
2022/12/28 08:30:43;;;;;;;;;;;6.50;99.90;;;;;;5067315;28;19927;-69
2022/12/28 08:33:09;;;;;;;;;;;6.50;99.90;;;;;;5067097;28;19959;-68
2022/12/28 08:35:34;;;;;;;;;;;6.50;99.90;;;;;;5085768;28;19920;-68
2022/12/28 08:38:00;;;;;;;;;;;6.50;99.90;;;;;;5087363;28;19916;-68
2022/12/28 08:40:28;;;;;;;;;;;6.50;99.90;;;;;;5087337;28;20000;-68
2022/12/28 08:42:58;;;;;;;;;;;6.50;99.90;;;;;;5087189;28;19912;-68
2022/12/28 08:45:23;;;;;;;;;;;6.50;99.90;;;;;;5067320;28;19919;-68
2022/12/28 08:47:49;;;;;;;;;;;6.60;99.90;;;;;;5049003;28;19912;-68
2022/12/28 08:50:14;;;;;;;;;;;6.50;99.90;;;;;;5067070;28;20289;-68
2022/12/28 08:52:40;;;;;;;;;;;6.60;99.90;;;;;;5066985;28;19938;-69
2022/12/28 08:55:05;;;;;;;;;;;6.50;99.90;;;;;;5081699;28;19923;-68
2022/12/28 08:57:31;;;;;;;;;;;6.60;99.90;;;;;;5076613;28;20342;-68
2022/12/28 08:59:57;;;;;;;;;;;6.60;99.90;;;;;;5066977;28;19912;-68
2022/12/28 09:02:22;;;;;;;;;;;6.60;99.90;;;;;;5066769;28;20012;-68
2022/12/28 09:04:48;;;;;;;;;;;6.60;99.90;;;;;;5078984;28;19908;-68
2022/12/28 09:07:13;;;;;;;;;;;6.60;99.90;;;;;;5087014;28;19908;-68
2022/12/28 09:09:39;;;;;;;;;;;6.60;99.90;;;;;;5087181;28;20615;-69
2022/12/28 09:12:06;;;;;;;;;;;6.60;99.90;;;;;;5086871;28;19912;-68
2022/12/28 09:14:31;;;;;;;;;;;6.60;99.90;;;;;;5086925;28;20392;-69
2022/12/28 09:16:57;;;;;;;;;;;6.60;99.90;;;;;;5086803;28;19918;-69
2022/12/28 09:19:22;;;;;;;;;;;6.70;99.90;;;;;;5085065;28;20299;-69
2022/12/28 09:21:51;;;;;;;;;;;6.70;99.90;;;;;;5084930;28;20010;-69
2022/12/28 09:24:16;;;;;;;;;;;6.70;99.90;;;;;;5078060;28;19912;-68
2022/12/28 09:26:42;;;;;;;;;;;6.70;99.90;;;;;;5076639;28;19920;-68
2022/12/28 09:29:09;;;;;;;;;;;6.80;99.90;;;;;;5085786;28;20329;-68
2022/12/28 09:31:35;;;;;;;;;;;6.70;99.90;;;;;;5085615;28;19951;-68
2022/12/28 09:34:05;;;;;;;;;;;6.80;99.90;;;;;;5085753;28;19912;-68
2022/12/28 09:36:32;;;;;;;;;;;6.80;99.90;;;;;;5085710;28;19923;-68
2022/12/28 09:38:58;;;;;;;;;;;6.80;99.90;;;;;;5085966;28;20480;-68
2022/12/28 09:41:23;;;;;;;;;;;6.80;99.90;;;;;;5085663;28;19957;-68
2022/12/28 09:44:15;;;;;;;;;;;6.80;99.90;;;;;;5084625;28;20594;-68
2022/12/28 09:47:11;;;;;;;;;;;6.80;99.90;;;;;;5074143;28;19923;-68
2022/12/28 09:49:39;;;;;;;;;;;6.90;99.90;;;;;;5071622;28;19920;-68
2022/12/28 09:52:20;;;;;;;;;;;6.90;99.90;;;;;;5084732;28;19912;-68
2022/12/28 09:54:45;;;;;;;;;;;6.90;99.90;;;;;;5083486;28;19927;-68
2022/12/28 09:57:15;;;;;;;;;;;6.90;99.90;;;;;;5084699;28;19908;-68
2022/12/28 09:59:41;;;;;;;;;;;6.90;99.90;;;;;;5084693;28;19912;-68
2022/12/28 10:02:15;;;;;;;;;;;6.90;99.90;;;;;;5084265;28;19916;-68
2022/12/28 10:04:40;;;;;;;;;;;6.90;99.90;;;;;;5083447;28;19915;-68
2022/12/28 10:07:08;;;;;;;;;;;6.90;99.90;;;;;;5084410;28;19916;-68
2022/12/28 10:09:34;;;;;;;;;;;7.00;99.90;;;;;;5085483;28;19912;-68
2022/12/28 10:12:11;;;;;;;;;;;7.00;99.90;;;;;;5088543;28;20442;-68
2022/12/28 10:14:37;;;;;;;;;;;7.00;99.90;;;;;;5070091;28;20600;-68
2022/12/28 10:17:05;;;;;;;;;;;7.00;99.90;;;;;;5088690;28;19923;-68
2022/12/28 10:19:30;;;;;;;;;;;7.10;99.90;;;;;;5088419;28;20022;-68
2022/12/28 10:22:11;;;;;;;;;;;7.10;99.90;;;;;;5069824;28;20022;-68
2022/12/28 10:24:38;;;;;;;;;;;7.10;99.90;;;;;;5088842;28;19919;-68
2022/12/28 10:27:04;;;;;;;;;;;7.10;99.90;;;;;;5082350;28;19948;-68
2022/12/28 10:29:30;;;;;;;;;;;7.10;99.90;;;;;;5081064;28;20015;-68
2022/12/28 10:32:00;;;;;;;;;;;7.10;99.90;;;;;;5086114;28;19912;-68
2022/12/28 10:34:26;;;;;;;;;;;7.10;99.90;;;;;;5067600;28;19923;-70
2022/12/28 10:36:52;;;;;;;;;;;7.20;99.90;;;;;;5069369;28;19912;-68
2022/12/28 10:39:23;;;;;;;;;;;7.20;99.90;;;;;;5087644;28;20050;-68
2022/12/28 10:41:48;;;;;;;;;;;7.20;99.90;;;;;;5085687;28;19916;-68
2022/12/28 10:44:31;;;;;;;;;;;7.20;99.90;;;;;;5069757;28;19916;-68
2022/12/28 10:46:59;;;;;;;;;;;7.20;99.90;;;;;;5086580;28;19916;-68
2022/12/28 10:49:26;;;;;;;;;;;7.30;99.90;;;;;;5067022;28;19912;-68
2022/12/28 10:52:18;;;;;;;;;;;7.30;99.90;;;;;;5069689;28;20583;-68
2022/12/28 10:54:43;;;;;;;;;;;7.30;99.90;;;;;;5083747;28;19912;-68
2022/12/28 10:57:16;;;;;;;;;;;7.40;99.90;;;;;;5086563;28;19965;-68
2022/12/28 10:59:42;;;;;;;;;;;7.40;99.90;;;;;;5069705;28;20312;-68
2022/12/28 11:02:23;;;;;;;;;;;7.40;99.90;;;;;;5087968;28;19912;-68
2022/12/28 11:04:55;;;;;;;;;;;7.40;99.90;;;;;;5083115;28;20010;-68
2022/12/28 11:07:26;;;;;;;;;;;7.40;99.90;;;;;;5087719;28;20590;-69
2022/12/28 11:09:51;;;;;;;;;;;7.40;99.90;;;;;;5087260;28;19912;-68
2022/12/28 11:12:21;;;;;;;;;;;7.40;99.90;;;;;;5087758;28;19912;-68
2022/12/28 11:14:47;;;;;;;;;;;7.40;99.90;;;;;;5085285;28;20705;-68
2022/12/28 11:17:20;;;;;;;;;;;7.40;99.90;;;;;;5087583;28;19919;-68
2022/12/28 11:19:46;;;;;;;;;;;7.50;99.90;;;;;;5086976;28;19912;-68
2022/12/28 11:22:13;;;;;;;;;;;7.50;99.90;;;;;;5084301;28;19912;-67
2022/12/28 11:24:39;;;;;;;;;;;7.50;99.90;;;;;;5085031;28;19990;-68
2022/12/28 11:27:05;;;;;;;;;;;7.50;99.90;;;;;;5087711;28;20053;-68
2022/12/28 11:29:31;;;;;;;;;;;7.60;99.90;;;;;;5087594;28;20365;-68
2022/12/28 11:31:59;;;;;;;;;;;7.50;99.90;;;;;;5087202;28;19916;-68
2022/12/28 11:34:26;;;;;;;;;;;7.60;99.90;;;;;;5087241;28;19912;-68
2022/12/28 11:36:51;;;;;;;;;;;7.60;99.90;;;;;;5084159;28;19912;-68
2022/12/28 11:39:26;;;;;;;;;;;7.60;99.90;;;;;;5082862;28;19972;-68
2022/12/28 11:41:51;;;;;;;;;;;7.60;99.90;;;;;;5085937;28;19969;-68
2022/12/28 11:44:21;;;;;;;;;;;7.60;99.90;;;;;;5087007;28;19920;-68
2022/12/28 11:47:02;;;;;;;;;;;7.60;99.90;;;;;;5085756;28;19943;-68
2022/12/28 11:49:29;;;;;;;;;;;7.70;99.90;;;;;;5086597;28;20367;-68
2022/12/28 11:52:26;;;;;;;;;;;7.70;99.90;;;;;;5087223;28;19912;-68
2022/12/28 11:54:56;;;;;;;;;;;7.70;99.90;;;;;;5074272;28;20055;-68
2022/12/28 11:57:41;;;;;;;;;;;7.70;99.90;;;;;;5080028;28;19970;-68
2022/12/28 12:00:16;;;;;;;;;;;7.70;99.90;;;;;;5088006;28;19912;-68
2022/12/28 12:02:48;;;;;;;;;;;7.70;99.90;;;;;;5086451;28;19919;-68
2022/12/28 12:05:32;;;;;;;;;;;7.70;99.90;;;;;;5072293;28;19989;-68
2022/12/28 12:07:57;;;;;;;;;;;7.70;99.90;;;;;;5067297;28;20674;-68
2022/12/28 12:10:32;;;;;;;;;;;7.70;99.90;;;;;;5067388;28;19923;-68
2022/12/28 12:12:58;;;;;;;;;;;7.70;99.90;;;;;;5067576;28;19926;-68
2022/12/28 12:15:31;;;;;;;;;;;7.70;99.90;;;;;;5087626;28;19918;-68
2022/12/28 12:18:02;;;;;;;;;;;7.70;99.90;;;;;;5087866;28;20388;-68
2022/12/28 12:20:46;;;;;;;;;;;7.70;99.90;;;;;;5085347;28;19962;-68
2022/12/28 12:23:25;;;;;;;;;;;7.70;99.90;;;;;;5067928;28;20322;-68
2022/12/28 12:25:53;;;;;;;;;;;7.70;99.90;;;;;;5067341;28;19913;-68
2022/12/28 12:28:42;;;;;;;;;;;7.70;99.90;;;;;;5084190;28;19912;-68
2022/12/28 12:31:12;;;;;;;;;;;7.70;99.90;;;;;;5068730;28;19912;-68
2022/12/28 12:33:41;;;;;;;;;;;7.70;99.90;;;;;;5086679;28;20674;-68
2022/12/28 12:36:25;;;;;;;;;;;7.70;99.90;;;;;;5069095;28;20273;-68
2022/12/28 12:38:53;;;;;;;;;;;7.70;99.90;;;;;;5087155;28;19912;-68
2022/12/28 12:41:34;;;;;;;;;;;7.70;99.90;;;;;;5086543;28;19919;-68
2022/12/28 12:44:20;;;;;;;;;;;7.70;99.90;;;;;;5087232;28;19962;-68
2022/12/28 12:46:55;;;;;;;;;;;7.70;99.90;;;;;;5064679;28;19998;-68
2022/12/28 12:49:36;;;;;;;;;;;7.70;99.90;;;;;;5086820;28;19916;-68
2022/12/28 12:52:11;;;;;;;;;;;7.70;99.90;;;;;;5086738;28;20407;-68
2022/12/28 12:54:42;;;;;;;;;;;7.70;99.90;;;;;;5076462;28;20411;-68
2022/12/28 12:57:14;;;;;;;;;;;7.70;99.90;;;;;;5066674;28;19912;-68
2022/12/28 12:59:52;;;;;;;;;;;7.80;99.90;;;;;;5066511;28;19912;-68
2022/12/28 13:02:26;;;;;;;;;;;7.80;99.90;;;;;;5066621;28;19912;-68
2022/12/28 13:04:52;;;;;;;;;;;7.70;99.90;;;;;;5079602;28;20622;-68
2022/12/28 13:07:17;;;;;;;;;;;7.80;99.90;;;;;;5068894;28;19951;-68
2022/12/28 13:09:43;;;;;;;;;;;7.80;99.90;;;;;;5086658;28;19962;-68
2022/12/28 13:12:12;;;;;;;;;;;7.80;99.90;;;;;;5087154;28;20345;-68
2022/12/28 13:14:38;;;;;;;;;;;7.80;99.90;;;;;;5086723;28;19960;-68
2022/12/28 13:17:05;;;;;;;;;;;7.70;99.90;;;;;;5086756;28;20303;-68
2022/12/28 13:19:30;;;;;;;;;;;7.70;99.90;;;;;;5086861;28;19912;-68
2022/12/28 13:21:57;;;;;;;;;;;7.80;99.90;;;;;;5085885;28;20258;-68
2022/12/28 13:24:24;;;;;;;;;;;7.80;99.90;;;;;;5086682;28;20368;-68
2022/12/28 13:26:50;;;;;;;;;;;7.80;99.90;;;;;;5081678;28;19916;-68
2022/12/28 13:29:17;;;;;;;;;;;7.80;99.90;;;;;;5066537;28;19966;-68
2022/12/28 13:31:48;;;;;;;;;;;7.70;99.90;;;;;;5071197;28;19958;-68
2022/12/28 13:34:24;;;;;;;;;;;7.80;99.90;;;;;;5086851;28;19908;-68
2022/12/28 13:36:52;;;;;;;;;;;7.70;99.90;;;;;;5086788;28;20241;-69
2022/12/28 13:39:18;;;;;;;;;;;7.80;99.90;;;;;;5086559;28;19954;-68
2022/12/28 13:41:53;;;;;;;;;;;7.70;99.90;;;;;;5068301;28;19912;-68
2022/12/28 13:44:34;;;;;;;;;;;7.70;99.90;;;;;;5087220;28;19936;-68
2022/12/28 13:47:06;;;;;;;;;;;7.70;99.90;;;;;;5090848;28;19908;-68
2022/12/28 13:49:40;;;;;;;;;;;7.80;99.90;;;;;;5090186;28;19912;-68
2022/12/28 13:52:11;;;;;;;;;;;7.70;99.90;;;;;;5090198;28;20412;-68
2022/12/28 13:54:37;;;;;;;;;;;7.70;99.90;;;;;;5080159;28;20423;-68
2022/12/28 13:57:04;;;;;;;;;;;7.70;99.90;;;;;;5069531;28;19912;-68
2022/12/28 13:59:29;;;;;;;;;;;7.70;99.90;;;;;;5069951;28;20017;-68
2022/12/28 14:01:55;;;;;;;;;;;7.80;99.90;;;;;;5069832;28;20620;-68
2022/12/28 14:04:23;;;;;;;;;;;7.70;99.90;;;;;;5078340;28;19951;-68
2022/12/28 14:06:49;;;;;;;;;;;7.70;99.90;;;;;;5071596;28;19908;-68
2022/12/28 14:09:15;;;;;;;;;;;7.70;99.90;;;;;;5090250;28;19918;-68
2022/12/28 14:11:42;;;;;;;;;;;7.70;99.90;;;;;;5089905;28;20588;-68
2022/12/28 14:14:08;;;;;;;;;;;7.70;99.90;;;;;;5089710;28;19973;-69
2022/12/28 14:16:34;;;;;;;;;;;7.70;99.90;;;;;;5089946;28;19923;-68
2022/12/28 14:18:59;;;;;;;;;;;7.70;99.90;;;;;;5090018;28;19908;-68
2022/12/28 14:21:32;;;;;;;;;;;7.70;99.90;;;;;;5084413;28;19916;-68
2022/12/28 14:24:05;;;;;;;;;;;7.70;99.90;;;;;;5088730;28;20416;-68
2022/12/28 14:26:32;;;;;;;;;;;7.70;99.90;;;;;;5089341;28;19916;-68
2022/12/28 14:28:58;;;;;;;;;;;7.70;99.90;;;;;;5089612;28;19954;-68
2022/12/28 14:31:26;;;;;;;;;;;7.70;99.90;;;;;;5089455;28;19951;-68
2022/12/28 14:33:52;;;;;;;;;;;7.70;99.90;;;;;;5089758;28;20440;-68
2022/12/28 14:36:22;;;;;;;;;;;7.70;99.90;;;;;;5089513;28;19927;-68
2022/12/28 14:38:49;;;;;;;;;;;7.70;99.90;;;;;;5089568;28;19962;-68
2022/12/28 14:41:16;;;;;;;;;;;7.70;99.90;;;;;;5089059;28;19912;-68
2022/12/28 14:43:43;;;;;;;;;;;7.70;99.90;;;;;;5089284;28;19916;-68
2022/12/28 14:46:16;;;;;;;;;;;7.60;99.90;;;;;;5089354;28;20598;-68
2022/12/28 14:48:43;;;;;;;;;;;7.60;99.90;;;;;;5089275;28;19912;-68
2022/12/28 14:51:15;;;;;;;;;;;7.70;99.90;;;;;;5081145;28;20007;-68
2022/12/28 14:53:41;;;;;;;;;;;7.60;99.90;;;;;;5068835;28;20445;-68
2022/12/28 14:56:17;;;;;;;;;;;7.60;99.90;;;;;;5068645;28;20369;-68
2022/12/28 14:58:46;;;;;;;;;;;7.60;99.90;;;;;;5068543;28;20003;-68
2022/12/28 15:01:12;;;;;;;;;;;7.60;99.90;;;;;;5068569;28;19987;-68
2022/12/28 15:03:54;;;;;;;;;;;7.70;99.90;;;;;;5068776;28;19917;-68